Time;durP1;ratioP1;P1;durP2;ratioP2;P2;SDS_P1;SDS_P2;PMS_P1;PMS_P2;Temp;Humidity;BMP_temperature;BMP_pressure;BME280_temperature;BME280_humidity;BME280_pressure;Samples;Min_cycle;Max_cycle;Signal;HPM_P1;HPM_P2
2022/08/29 00:01:05;;;;;;;5.10;2.70;;;;;;;19.16;56.85;100627.81;5054642;28;20486;-71
2022/08/29 00:03:32;;;;;;;3.73;1.83;;;;;;;19.22;56.54;100622.84;5059637;28;20456;-72
2022/08/29 00:06:00;;;;;;;4.27;2.30;;;;;;;19.19;56.90;100626.69;5054780;28;20443;-71
2022/08/29 00:08:27;;;;;;;6.47;2.20;;;;;;;19.17;56.86;100626.84;5066212;28;20443;-71
2022/08/29 00:10:53;;;;;;;4.35;2.08;;;;;;;19.10;57.14;100624.69;5053962;28;20220;-71
2022/08/29 00:13:21;;;;;;;11.27;3.05;;;;;;;19.05;57.61;100635.97;5056387;28;20201;-70
2022/08/29 00:15:48;;;;;;;4.10;2.08;;;;;;;19.10;57.57;100630.13;5062309;28;20959;-72
2022/08/29 00:18:17;;;;;;;3.92;2.03;;;;;;;19.07;57.60;100636.72;5061129;28;20206;-73
2022/08/29 00:20:46;;;;;;;7.45;2.80;;;;;;;19.11;57.33;100629.16;5064785;28;20192;-70
2022/08/29 00:23:14;;;;;;;4.35;2.17;;;;;;;19.08;57.18;100634.84;5057504;28;20296;-71
2022/08/29 00:25:40;;;;;;;4.03;2.22;;;;;;;19.02;57.69;100630.75;5072259;28;20217;-71
2022/08/29 00:28:07;;;;;;;5.03;2.38;;;;;;;18.96;57.89;100629.34;5065253;28;20201;-71
2022/08/29 00:30:34;;;;;;;3.75;2.00;;;;;;;19.00;57.62;100631.84;5059942;28;20559;-72
2022/08/29 00:33:01;;;;;;;4.93;2.00;;;;;;;18.99;58.06;100641.00;5055534;28;20197;-72
2022/08/29 00:35:31;;;;;;;2.53;2.08;;;;;;;19.02;57.83;100635.34;5053113;28;20227;-71
2022/08/29 00:37:59;;;;;;;7.78;2.47;;;;;;;18.92;57.87;100637.88;5061586;28;20675;-71
2022/08/29 00:40:31;;;;;;;7.90;1.98;;;;;;;18.88;58.18;100626.34;5055288;28;20209;-71
2022/08/29 00:42:58;;;;;;;4.20;2.30;;;;;;;18.87;58.35;100627.31;5058489;28;20215;-70
2022/08/29 00:45:25;;;;;;;3.60;2.05;;;;;;;18.91;58.41;100627.97;5058731;28;20670;-69
2022/08/29 00:47:55;;;;;;;5.85;2.20;;;;;;;18.86;58.43;100627.44;5069766;28;20261;-71
2022/08/29 00:50:27;;;;;;;4.50;2.00;;;;;;;18.90;58.25;100635.28;5048647;28;20587;-70
2022/08/29 00:52:56;;;;;;;4.68;2.28;;;;;;;18.84;58.35;100634.91;5061546;28;20195;-70
2022/08/29 00:55:25;;;;;;;6.22;1.88;;;;;;;18.73;58.90;100635.66;5054547;28;20693;-70
2022/08/29 00:57:57;;;;;;;7.28;2.35;;;;;;;18.70;59.03;100644.97;5044642;28;20574;-70
2022/08/29 01:00:25;;;;;;;5.28;1.90;;;;;;;18.69;59.35;100642.34;5065459;28;20201;-70
2022/08/29 01:02:53;;;;;;;2.85;1.90;;;;;;;18.68;59.54;100654.25;5057708;28;20590;-71
2022/08/29 01:05:20;;;;;;;4.18;2.10;;;;;;;18.66;59.25;100645.31;5052623;28;20398;-69
2022/08/29 01:07:47;;;;;;;4.88;1.83;;;;;;;18.63;59.65;100640.06;5049066;28;20209;-70
2022/08/29 01:12:14;;;;;;;4.53;2.10;;;;;;;18.64;59.64;100641.81;5056539;28;20207;-71
2022/08/29 01:13:05;;;;;;;4.80;1.95;;;;;;;18.61;59.87;100645.66;5058203;28;20206;-71
2022/08/29 01:15:34;;;;;;;5.07;2.10;;;;;;;18.54;59.62;100650.69;5063549;28;20212;-70
2022/08/29 01:18:02;;;;;;;4.45;2.17;;;;;;;18.52;60.17;100643.63;5043352;28;20667;-71
2022/08/29 01:20:39;;;;;;;5.07;2.20;;;;;;;18.56;59.84;100647.84;5065539;28;20292;-70
2022/08/29 01:23:12;;;;;;;4.03;1.98;;;;;;;18.49;60.04;100641.97;5065432;28;20596;-70
2022/08/29 01:25:46;;;;;;;6.68;2.33;;;;;;;18.58;60.21;100640.41;5056086;28;20216;-72
2022/08/29 01:28:18;;;;;;;2.35;1.60;;;;;;;18.58;59.68;100642.28;5063302;28;20186;-71
2022/08/29 01:31:00;;;;;;;4.40;2.22;;;;;;;18.48;60.05;100648.41;5064253;28;20198;-70
2022/08/29 01:33:35;;;;;;;2.88;2.00;;;;;;;18.47;60.12;100652.13;5068412;28;20207;-71
2022/08/29 01:36:02;;;;;;;2.95;1.83;;;;;;;18.47;60.15;100653.97;5068562;28;20214;-71
2022/08/29 01:38:29;;;;;;;3.63;1.70;;;;;;;18.45;60.14;100656.84;5059470;28;20279;-70
2022/08/29 01:40:58;;;;;;;3.95;1.92;;;;;;;18.40;60.34;100659.00;5064151;28;20372;-70
2022/08/29 01:43:26;;;;;;;5.72;2.38;;;;;;;18.37;60.73;100664.72;5054119;28;20218;-71
2022/08/29 01:45:53;;;;;;;5.00;2.30;;;;;;;18.36;60.72;100665.72;5060611;28;20222;-71
2022/08/29 01:48:21;;;;;;;5.38;1.92;;;;;;;18.30;60.83;100666.16;5068625;28;20207;-70
2022/08/29 01:50:47;;;;;;;6.63;2.25;;;;;;;18.26;61.15;100667.34;5061989;28;20224;-72
2022/08/29 01:53:15;;;;;;;3.22;1.83;;;;;;;18.27;60.88;100666.34;5062263;28;20583;-69
2022/08/29 01:55:42;;;;;;;3.40;2.25;;;;;;;18.21;61.34;100666.81;5062124;28;20225;-71
2022/08/29 01:58:10;;;;;;;5.80;2.45;;;;;;;18.21;61.03;100667.69;5058501;28;20627;-71
2022/08/29 02:00:37;;;;;;;4.45;1.95;;;;;;;18.15;61.17;100664.53;5057571;28;20284;-69
2022/08/29 02:03:04;;;;;;;3.53;2.47;;;;;;;18.24;61.07;100663.88;5047472;28;20212;-72
2022/08/29 02:05:31;;;;;;;4.85;2.63;;;;;;;18.10;62.08;100665.75;5063721;28;20330;-70
2022/08/29 02:07:58;;;;;;;4.53;2.08;;;;;;;18.17;61.48;100671.63;5065444;28;20194;-71
2022/08/29 02:10:24;;;;;;;6.65;2.38;;;;;;;18.13;61.95;100667.38;5070161;28;20223;-70
2022/08/29 02:12:52;;;;;;;4.25;2.30;;;;;;;18.15;61.86;100664.53;5064276;28;20604;-70
2022/08/29 02:15:21;;;;;;;6.72;1.92;;;;;;;18.15;61.97;100673.59;5061949;28;20283;-71
2022/08/29 02:17:47;;;;;;;4.82;3.20;;;;;;;18.13;61.82;100672.81;5059069;28;20805;-70
2022/08/29 02:20:14;;;;;;;4.63;1.90;;;;;;;18.07;62.06;100678.75;5064476;28;20230;-71
2022/08/29 02:22:41;;;;;;;7.95;2.35;;;;;;;18.02;62.28;100676.34;5071473;28;20238;-71
2022/08/29 02:27:50;;;;;;;6.97;2.50;;;;;;;18.07;61.98;100678.75;5063739;28;20192;-71
2022/08/29 02:30:17;;;;;;;5.25;1.98;;;;;;;18.02;62.06;100672.72;5067494;28;20205;-70
2022/08/29 02:32:45;;;;;;;4.82;1.90;;;;;;;17.89;62.36;100665.44;5065667;28;20189;-69
2022/08/29 02:35:11;;;;;;;5.72;2.40;;;;;;;17.89;62.54;100667.31;5067393;28;20232;-70
2022/08/29 02:37:38;;;;;;;6.90;2.72;;;;;;;17.83;62.92;100665.88;5065648;28;20207;-70
2022/08/29 02:40:05;;;;;;;3.75;2.28;;;;;;;17.88;63.12;100665.53;5058856;28;20197;-70
2022/08/29 02:42:32;;;;;;;3.97;2.38;;;;;;;17.87;62.64;100677.44;5055241;28;20228;-71
2022/08/29 02:45:00;;;;;;;5.40;2.22;;;;;;;17.79;63.19;100671.63;5065684;28;20674;-70
2022/08/29 02:47:26;;;;;;;6.85;2.33;;;;;;;17.78;63.37;100673.47;5056611;28;21883;-71
2022/08/29 02:49:54;;;;;;;4.07;2.40;;;;;;;17.77;63.45;100670.84;5052564;28;20202;-72
2022/08/29 02:52:21;;;;;;;5.50;2.22;;;;;;;17.69;63.74;100672.28;5060664;28;20251;-71
2022/08/29 02:54:47;;;;;;;7.35;2.53;;;;;;;17.70;63.50;100671.31;5063263;28;20585;-70
2022/08/29 02:57:14;;;;;;;7.30;2.65;;;;;;;17.67;63.71;100663.34;5063817;28;20569;-71
2022/08/29 02:59:40;;;;;;;4.25;2.25;;;;;;;17.67;63.86;100674.25;5049972;28;20197;-71
2022/08/29 03:02:07;;;;;;;4.88;2.45;;;;;;;17.64;63.83;100674.47;5068428;28;20295;-71
2022/08/29 03:04:33;;;;;;;7.72;2.60;;;;;;;17.63;64.13;100678.16;5078326;28;20223;-71
2022/08/29 03:07:01;;;;;;;6.95;2.60;;;;;;;17.56;64.14;100676.84;5062864;28;20752;-71
2022/08/29 03:09:28;;;;;;;3.97;2.15;;;;;;;17.58;64.46;100674.88;5056242;28;20542;-70
2022/08/29 03:11:55;;;;;;;4.97;2.63;;;;;;;17.49;64.38;100673.69;5050986;28;20220;-70
2022/08/29 03:14:22;;;;;;;6.47;2.67;;;;;;;17.53;64.66;100673.47;5067920;28;20566;-70
2022/08/29 03:16:48;;;;;;;4.97;2.85;;;;;;;17.57;64.48;100680.44;5041948;28;20201;-71
2022/08/29 03:19:15;;;;;;;5.57;2.85;;;;;;;17.56;64.70;100673.25;5055985;28;20223;-72
2022/08/29 03:21:43;;;;;;;10.00;2.25;;;;;;;17.55;64.46;100671.50;5050286;28;20197;-71
2022/08/29 03:24:12;;;;;;;5.70;3.15;;;;;;;17.56;64.38;100674.13;5062112;28;20237;-70
2022/08/29 03:26:38;;;;;;;2.47;1.92;;;;;;;17.47;64.83;100677.50;5053015;28;20204;-71
2022/08/29 03:29:05;;;;;;;5.05;2.75;;;;;;;17.41;65.41;100678.81;5054285;28;20292;-70
2022/08/29 03:31:32;;;;;;;4.85;2.92;;;;;;;17.40;65.46;100679.78;5076758;28;20260;-70
2022/08/29 03:33:58;;;;;;;8.27;3.13;;;;;;;17.35;65.81;100679.22;5057227;28;20294;-70
2022/08/29 03:36:26;;;;;;;4.97;2.60;;;;;;;17.34;65.76;100680.19;5073673;28;20225;-71
2022/08/29 03:38:53;;;;;;;6.20;2.45;;;;;;;17.34;65.86;100682.03;5088941;28;20205;-70
2022/08/29 03:41:22;;;;;;;8.82;2.67;;;;;;;17.28;65.90;100689.66;5074505;28;20200;-70
2022/08/29 03:43:49;;;;;;;5.70;2.63;;;;;;;17.32;65.99;100687.63;5066315;28;20282;-69
2022/08/29 03:46:15;;;;;;;4.50;2.53;;;;;;;17.19;66.61;100690.31;5070823;28;20210;-71
2022/08/29 03:48:42;;;;;;;4.60;2.55;;;;;;;17.24;66.61;100679.97;5076375;28;20654;-70
2022/08/29 03:51:09;;;;;;;7.63;2.92;;;;;;;17.22;66.53;100678.31;5064657;28;20251;-72
2022/08/29 03:53:36;;;;;;;6.30;3.10;;;;;;;17.18;66.94;100677.66;5053256;28;20208;-70
2022/08/29 03:56:04;;;;;;;5.47;3.10;;;;;;;17.17;67.20;100680.50;5056160;28;20249;-72
2022/08/29 03:58:33;;;;;;;7.03;3.13;;;;;;;17.27;66.46;100682.47;5058982;28;20280;-69
2022/08/29 04:01:01;;;;;;;3.58;2.80;;;;;;;17.24;66.64;100674.53;5064681;28;20201;-70
2022/08/29 04:03:28;;;;;;;5.53;2.50;;;;;;;17.13;66.86;100674.38;5062288;28;20295;-72
2022/08/29 04:05:54;;;;;;;4.75;2.63;;;;;;;17.11;67.25;100684.50;5059489;28;20220;-71
2022/08/29 04:08:21;;;;;;;5.10;3.45;;;;;;;17.08;67.60;100676.56;5062775;28;20201;-69
2022/08/29 04:10:47;;;;;;;12.30;3.33;;;;;;;17.00;67.73;100682.50;5066092;28;20571;-71
2022/08/29 04:13:14;;;;;;;4.90;2.85;;;;;;;16.94;68.47;100677.50;5069966;28;20201;-71
2022/08/29 04:15:43;;;;;;;6.65;2.67;;;;;;;16.93;68.62;100672.16;5061513;28;20248;-71
2022/08/29 04:18:10;;;;;;;6.22;2.92;;;;;;;16.94;68.69;100679.34;5063851;28;20199;-70
2022/08/29 04:20:43;;;;;;;4.30;2.70;;;;;;;16.91;68.64;100674.09;5059748;28;20310;-70
2022/08/29 04:23:12;;;;;;;7.38;3.00;;;;;;;16.92;68.64;100678.56;5056675;28;20311;-72
2022/08/29 04:25:40;;;;;;;7.05;2.72;;;;;;;16.95;68.95;100684.66;5064650;28;20217;-72
2022/08/29 04:28:08;;;;;;;5.30;3.47;;;;;;;16.98;68.41;100692.66;5068528;28;20737;-71
2022/08/29 04:30:37;;;;;;;4.82;3.47;;;;;;;17.01;68.54;100692.41;5049559;28;20286;-72
2022/08/29 04:33:05;;;;;;;6.65;2.78;;;;;;;17.00;68.20;100684.34;5065358;28;20196;-73
2022/08/29 04:35:33;;;;;;;5.20;3.10;;;;;;;17.05;68.36;100693.09;5108817;22;20248;-70
2022/08/29 04:38:00;;;;;;;6.53;2.83;;;;;;;17.08;68.42;100690.16;5096828;28;20230;-70
2022/08/29 04:40:26;;;;;;;11.68;3.25;;;;;;;17.07;68.09;100699.28;5104109;28;20196;-70
2022/08/29 04:42:53;;;;;;;7.35;3.17;;;;;;;17.13;67.95;100696.16;5098954;28;20283;-70
2022/08/29 04:45:23;;;;;;;7.70;3.25;;;;;;;17.13;67.95;100696.16;5085632;28;20232;-71
2022/08/29 04:47:50;;;;;;;4.03;2.75;;;;;;;17.21;67.71;100691.06;5077635;28;20540;-69
2022/08/29 04:50:20;;;;;;;4.88;3.00;;;;;;;17.17;67.63;100694.09;5078154;28;20196;-71
2022/08/29 04:52:49;;;;;;;6.55;4.53;;;;;;;17.13;67.92;100693.44;5077366;28;20204;-70
2022/08/29 04:55:17;;;;;;;3.35;2.47;;;;;;;17.11;68.05;100695.38;5076813;28;20236;-71
2022/08/29 04:57:44;;;;;;;5.90;2.72;;;;;;;17.16;67.85;100695.06;5076631;28;20201;-71
2022/08/29 05:00:14;;;;;;;6.32;3.58;;;;;;;17.15;67.63;100696.06;5069351;28;20189;-70
2022/08/29 05:02:41;;;;;;;6.00;2.92;;;;;;;17.13;67.83;100707.03;5080794;28;20220;-70
2022/08/29 05:05:10;;;;;;;8.90;3.78;;;;;;;17.21;67.81;100701.97;5080102;28;20251;-70
2022/08/29 05:07:38;;;;;;;5.35;3.88;;;;;;;17.25;67.46;100705.31;5080403;28;20200;-72
2022/08/29 05:10:08;;;;;;;6.70;3.03;;;;;;;17.28;67.42;100713.31;5076127;28;20204;-70
2022/08/29 05:12:35;;;;;;;6.85;2.70;;;;;;;17.26;67.74;100715.25;5075883;28;20260;-69
2022/08/29 05:15:02;;;;;;;6.90;3.35;;;;;;;17.32;67.14;100720.28;5071929;28;20263;-73
2022/08/29 05:17:28;;;;;;;6.82;3.45;;;;;;;17.39;66.85;100721.59;5075065;28;20207;-69
2022/08/29 05:19:55;;;;;;;9.35;3.55;;;;;;;17.34;66.96;100720.16;5088778;28;20564;-71
2022/08/29 05:22:22;;;;;;;8.30;3.72;;;;;;;17.42;66.99;100721.38;5080018;28;20212;-72
2022/08/29 05:24:50;;;;;;;5.80;3.40;;;;;;;17.43;66.66;100727.69;5097214;28;20223;-71
2022/08/29 05:27:20;;;;;;;4.65;3.15;;;;;;;17.46;66.81;100722.91;5090228;28;20200;-70
2022/08/29 05:29:50;;;;;;;4.97;3.05;;;;;;;17.47;66.60;100730.09;5081687;28;20572;-72
2022/08/29 05:32:18;;;;;;;11.02;3.47;;;;;;;17.57;66.22;100726.72;5070354;28;20316;-73
2022/08/29 05:34:46;;;;;;;7.75;2.92;;;;;;;17.46;67.01;100725.63;5075154;28;20269;-72
2022/08/29 05:37:15;;;;;;;6.95;4.30;;;;;;;17.45;66.97;100728.47;5074445;28;20204;-71
2022/08/29 05:39:42;;;;;;;7.90;4.00;;;;;;;17.48;66.84;100725.53;5076691;28;20192;-73
2022/08/29 05:42:11;;;;;;;6.55;5.03;;;;;;;17.58;66.51;100731.22;5086681;28;20192;-72
2022/08/29 05:44:39;;;;;;;7.63;4.30;;;;;;;17.59;66.29;100720.22;5075872;28;20220;-72
2022/08/29 05:47:08;;;;;;;5.35;3.15;;;;;;;17.69;66.27;100732.19;5077074;28;20329;-71
2022/08/29 05:49:36;;;;;;;9.00;3.28;;;;;;;17.82;65.61;100728.63;5074419;28;20203;-73
2022/08/29 05:52:03;;;;;;;7.68;3.35;;;;;;;17.85;65.41;100728.44;5074111;28;20258;-72
2022/08/29 05:54:32;;;;;;;7.07;3.75;;;;;;;17.87;65.04;100715.59;5074706;28;20592;-72
2022/08/29 05:56:59;;;;;;;16.45;3.80;;;;;;;17.91;65.08;100725.28;5073817;28;20189;-75
2022/08/29 05:59:27;;;;;;;11.43;3.45;;;;;;;17.90;64.86;100728.97;5074026;28;20243;-70
2022/08/29 06:01:53;;;;;;;6.10;3.72;;;;;;;17.99;64.65;100728.31;5075169;28;20215;-73
2022/08/29 06:04:20;;;;;;;5.53;3.05;;;;;;;18.05;64.78;100730.63;5075144;28;20221;-72
2022/08/29 06:06:47;;;;;;;7.05;3.97;;;;;;;18.31;63.75;100734.19;5075394;28;20184;-73
2022/08/29 06:09:14;;;;;;;6.40;3.72;;;;;;;18.36;63.30;100725.69;5074773;28;20208;-73
2022/08/29 06:11:40;;;;;;;9.50;3.47;;;;;;;18.50;62.69;100732.84;5073754;28;20658;-73
2022/08/29 06:14:07;;;;;;;8.90;4.03;;;;;;;18.59;62.16;100726.72;5073366;28;20216;-72
2022/08/29 06:16:35;;;;;;;9.75;4.70;;;;;;;18.67;61.92;100735.19;5088531;28;20196;-71
2022/08/29 06:19:01;;;;;;;7.22;3.28;;;;;;;18.80;61.62;100727.00;5081337;28;20215;-73
2022/08/29 06:21:29;;;;;;;4.90;2.90;;;;;;;18.90;60.81;100730.81;5073888;28;20207;-70
2022/08/29 06:23:55;;;;;;;7.00;3.22;;;;;;;19.11;59.95;100735.63;5074276;28;20282;-72
2022/08/29 06:26:22;;;;;;;10.02;3.40;;;;;;;19.13;59.79;100747.28;5072807;28;20240;-73
2022/08/29 06:28:49;;;;;;;10.02;3.80;;;;;;;19.22;59.45;100742.97;5074124;28;20223;-70
2022/08/29 06:31:19;;;;;;;7.00;3.75;;;;;;;19.36;59.14;100740.94;5076458;28;20209;-73
2022/08/29 06:33:49;;;;;;;7.30;3.72;;;;;;;19.44;58.86;100742.22;5074598;28;20192;-72
2022/08/29 06:36:16;;;;;;;5.53;3.30;;;;;;;19.54;58.66;100746.00;5075740;28;20247;-71
2022/08/29 06:38:43;;;;;;;7.70;3.30;;;;;;;19.72;57.92;100747.31;5076707;28;20196;-71
2022/08/29 06:41:12;;;;;;;4.85;3.55;;;;;;;19.85;57.53;100743.59;5084426;28;20463;-71
2022/08/29 06:43:39;;;;;;;7.00;3.28;;;;;;;19.98;57.02;100742.50;5087023;28;20204;-71
2022/08/29 06:46:06;;;;;;;5.43;3.23;;;;;;;20.24;56.26;100744.16;5078267;28;20221;-72
2022/08/29 06:48:33;;;;;;;7.33;4.00;;;;;;;20.02;56.78;100756.81;5058097;28;20455;-71
2022/08/29 06:51:02;;;;;;;5.33;3.57;;;;;;;20.13;56.31;100761.44;5081274;28;20448;-73
2022/08/29 06:53:28;;;;;;;7.20;3.23;;;;;;;20.32;55.74;100764.41;5075136;28;20445;-71
2022/08/29 06:55:55;;;;;;;8.20;3.33;;;;;;;20.32;55.41;100769.03;5072672;28;20467;-73
2022/08/29 06:58:22;;;;;;;9.00;3.40;;;;;;;20.42;54.80;100768.16;5072853;28;20482;-74
2022/08/29 07:00:49;;;;;;;7.20;3.30;;;;;;;20.46;54.93;100768.75;5073564;28;20446;-73
2022/08/29 07:03:15;;;;;;;6.60;3.00;;;;;;;20.85;54.26;100765.66;5073814;28;20481;-73
2022/08/29 07:05:42;;;;;;;10.40;3.60;;;;;;;21.02;53.26;100762.41;5073371;28;20477;-72
2022/08/29 07:08:10;;;;;;;5.93;3.13;;;;;;;21.13;52.84;100761.50;5072495;28;20443;-72
2022/08/29 07:10:36;;;;;;;10.53;3.77;;;;;;;21.39;52.48;100757.44;5078257;28;20445;-73
2022/08/29 07:13:03;;;;;;;7.03;3.30;;;;;;;21.74;51.07;100760.91;5080868;28;20432;-72
2022/08/29 07:15:29;;;;;;;6.67;3.80;;;;;;;22.13;49.92;100753.78;5073942;28;21340;-73
2022/08/29 07:17:56;;;;;;;5.97;3.50;;;;;;;22.50;48.57;100769.75;5073426;28;20446;-75
2022/08/29 07:20:22;;;;;;;11.13;3.30;;;;;;;22.61;48.12;100766.91;5072859;28;20453;-73
2022/08/29 07:22:50;;;;;;;5.67;2.90;;;;;;;22.81;47.38;100770.56;5073681;28;20466;-70
2022/08/29 07:25:19;;;;;;;5.13;3.77;;;;;;;23.05;46.62;100774.88;5073498;28;20487;-72
2022/08/29 07:27:47;;;;;;;7.10;3.43;;;;;;;23.79;45.14;100776.22;5073267;28;20442;-71
2022/08/29 07:30:15;;;;;;;5.37;3.00;;;;;;;24.08;44.04;100778.94;5073964;28;20442;-71
2022/08/29 07:32:43;;;;;;;6.17;2.80;;;;;;;24.64;42.58;100772.56;5073152;28;20437;-71
2022/08/29 07:35:11;;;;;;;8.97;3.30;;;;;;;25.11;41.46;100772.44;5073663;28;20466;-73
2022/08/29 07:37:37;;;;;;;8.13;3.10;;;;;;;25.49;40.78;100775.13;5077491;28;20533;-70
2022/08/29 07:40:05;;;;;;;5.73;2.90;;;;;;;25.94;40.17;100777.78;5073473;28;20461;-71
2022/08/29 07:42:33;;;;;;;10.07;3.20;;;;;;;26.34;39.22;100768.03;5072692;28;20492;-69
2022/08/29 07:44:59;;;;;;;7.57;3.33;;;;;;;26.85;38.13;100776.44;5072836;28;20868;-70
2022/08/29 07:47:27;;;;;;;6.00;3.43;;;;;;;27.01;38.00;100778.41;5072074;28;20481;-70
2022/08/29 07:49:54;;;;;;;7.10;3.07;;;;;;;27.20;37.50;100778.16;5072730;28;20443;-70
2022/08/29 07:52:21;;;;;;;5.30;3.00;;;;;;;26.94;37.50;100780.97;5073401;28;20442;-70
2022/08/29 07:54:47;;;;;;;9.80;3.30;;;;;;;27.10;37.33;100782.94;5072863;28;20458;-73
2022/08/29 07:57:16;;;;;;;4.70;2.60;;;;;;;27.37;36.92;100778.19;5072721;28;20464;-70
2022/08/29 07:59:44;;;;;;;6.90;2.87;;;;;;;27.36;36.76;100777.34;5072770;28;20529;-71
2022/08/29 08:02:11;;;;;;;5.27;2.60;;;;;;;27.69;36.32;100779.28;5076801;28;20958;-71
2022/08/29 08:04:37;;;;;;;6.80;2.50;;;;;;;28.07;35.95;100761.97;5076715;28;20478;-70
2022/08/29 08:07:04;;;;;;;8.67;3.17;;;;;;;28.43;35.03;100767.09;5077230;28;20431;-71
2022/08/29 08:09:30;;;;;;;4.47;2.80;;;;;;;28.53;35.03;100764.16;5077568;28;20446;-71
2022/08/29 08:11:57;;;;;;;4.90;3.20;;;;;;;28.64;34.67;100766.53;5084720;28;20446;-70
2022/08/29 08:14:24;;;;;;;6.47;2.70;;;;;;;28.56;34.52;100768.47;5089514;28;20459;-70
2022/08/29 08:16:52;;;;;;;4.87;2.50;;;;;;;28.80;34.57;100773.91;5088224;28;20430;-70
2022/08/29 08:19:19;;;;;;;6.97;2.93;;;;;;;28.15;35.42;100774.06;5078458;28;20529;-71
2022/08/29 08:21:45;;;;;;;6.30;3.00;;;;;;;27.72;36.15;100777.00;5078428;28;21026;-70
2022/08/29 08:24:12;;;;;;;5.27;2.83;;;;;;;28.14;35.82;100769.59;5076287;28;20577;-71
2022/08/29 08:26:38;;;;;;;5.73;3.07;;;;;;;28.14;35.14;100766.81;5078027;28;20478;-70
2022/08/29 08:29:05;;;;;;;5.03;2.80;;;;;;;28.47;35.10;100778.75;5078862;28;20445;-70
2022/08/29 08:31:32;;;;;;;4.70;2.30;;;;;;;27.82;35.68;100777.72;5075922;28;20545;-70
2022/08/29 08:34:00;;;;;;;3.97;2.37;;;;;;;27.64;36.15;100779.78;5079298;28;20926;-69
2022/08/29 08:36:30;;;;;;;5.43;2.77;;;;;;;27.56;36.29;100780.63;5073752;28;20480;-70
2022/08/29 08:38:59;;;;;;;5.10;2.30;;;;;;;27.51;36.34;100780.28;5083632;28;20440;-70
2022/08/29 08:41:40;;;;;;;4.97;2.43;;;;;;;27.10;37.20;100773.78;5078369;28;20454;-70
2022/08/29 08:44:13;;;;;;;3.53;2.40;;;;;;;27.45;36.74;100780.97;5077397;28;20462;-72
2022/08/29 08:46:42;;;;;;;5.70;2.70;;;;;;;27.69;36.20;100785.66;5076607;28;20418;-69
2022/08/29 08:49:15;;;;;;;7.50;2.87;;;;;;;27.86;35.65;100781.03;5072936;28;20467;-71
2022/08/29 08:51:47;;;;;;;8.00;2.77;;;;;;;28.43;35.37;100785.63;5080450;28;20505;-71
2022/08/29 08:54:20;;;;;;;7.20;2.73;;;;;;;29.76;33.46;100791.28;5079876;28;20465;-71
2022/08/29 08:56:51;;;;;;;5.20;3.10;;;;;;;30.55;32.53;100794.53;5075968;28;20441;-70
2022/08/29 08:59:24;;;;;;;6.43;2.50;;;;;;;30.45;32.20;100790.31;5075998;28;20419;-70
2022/08/29 09:02:00;;;;;;;8.50;2.70;;;;;;;30.23;32.14;100778.16;5075450;28;20514;-70
2022/08/29 09:04:42;;;;;;;12.40;3.40;;;;;;;30.40;32.32;100788.09;5074767;28;20489;-70
2022/08/29 09:07:22;;;;;;;3.17;2.50;;;;;;;30.88;31.19;100788.59;5074987;28;20466;-72
2022/08/29 09:10:03;;;;;;;5.60;2.67;;;;;;;30.09;32.10;100783.50;5068604;28;20434;-70
2022/08/29 09:12:41;;;;;;;4.97;2.37;;;;;;;30.58;31.27;100775.75;5074221;28;20437;-69
2022/08/29 09:15:10;;;;;;;3.73;2.20;;;;;;;31.06;31.24;100795.69;5083767;28;20460;-70
2022/08/29 09:17:42;;;;;;;4.57;2.93;;;;;;;32.13;29.63;100790.22;5055475;28;20808;-70
2022/08/29 09:20:14;;;;;;;5.43;3.00;;;;;;;34.30;27.74;100785.94;5055216;28;20424;-69
2022/08/29 09:22:44;;;;;;;9.60;5.60;;;;;;;34.41;27.30;100788.06;5070888;28;20461;-71
2022/08/29 09:25:12;;;;;;;7.00;4.50;;;;;;;34.15;27.11;100793.72;5076561;28;20483;-71
2022/08/29 09:27:39;;;;;;;7.80;2.60;;;;;;;34.09;27.61;100787.00;5074797;28;20501;-71
2022/08/29 09:30:10;;;;;;;6.97;2.23;;;;;;;35.64;25.87;100798.47;5075032;28;20525;-70
2022/08/29 09:32:52;;;;;;;5.10;2.00;;;;;;;36.36;25.04;100797.25;5074822;28;20423;-71
2022/08/29 09:35:24;;;;;;;6.93;2.30;;;;;;;36.26;24.69;100798.63;5074779;28;20466;-71
2022/08/29 09:37:57;;;;;;;3.30;2.20;;;;;;;36.30;25.04;100797.09;5074261;28;20446;-70
2022/08/29 09:40:24;;;;;;;7.00;2.53;;;;;;;35.74;25.47;100786.75;5074846;28;20916;-71
2022/08/29 09:43:01;;;;;;;3.60;2.40;;;;;;;33.90;26.93;100782.25;5074651;28;20442;-70
2022/08/29 09:45:28;;;;;;;3.93;2.50;;;;;;;33.71;27.63;100781.19;5075486;28;20902;-70
2022/08/29 09:48:09;;;;;;;5.80;2.97;;;;;;;34.02;27.31;100777.78;5074000;28;20461;-71
2022/08/29 09:50:37;;;;;;;5.43;2.60;;;;;;;35.28;25.90;100785.06;5075133;28;20435;-70
2022/08/29 09:53:04;;;;;;;4.60;2.10;;;;;;;36.01;25.13;100784.59;5074223;28;20435;-70
2022/08/29 09:55:34;;;;;;;4.20;1.93;;;;;;;36.50;24.54;100782.03;5074315;28;20533;-71
2022/08/29 09:58:03;;;;;;;2.50;2.03;;;;;;;37.84;23.36;100784.84;5074165;28;20802;-71
2022/08/29 10:00:33;;;;;;;5.30;2.70;;;;;;;38.76;22.37;100795.59;5073567;28;20829;-70
2022/08/29 10:03:01;;;;;;;6.70;2.20;;;;;;;39.01;21.96;100788.81;5074890;28;20514;-69
2022/08/29 10:05:36;;;;;;;3.57;2.10;;;;;;;39.85;21.33;100793.91;5072843;28;20494;-70
2022/08/29 10:08:06;;;;;;;4.33;2.23;;;;;;;41.02;20.62;100785.53;5072711;28;20451;-72
2022/08/29 10:10:35;;;;;;;5.80;2.13;;;;;;;40.29;20.69;100788.44;5075863;28;20430;-70
2022/08/29 10:13:10;;;;;;;5.57;2.00;;;;;;;40.04;21.18;100786.03;5074073;28;20580;-71
2022/08/29 10:15:41;;;;;;;2.90;2.43;;;;;;;41.03;20.19;100784.44;5053823;28;20458;-70
2022/08/29 10:18:23;;;;;;;6.90;3.87;;;;;;;41.32;20.41;100775.78;5065470;28;20443;-70
2022/08/29 10:21:05;;;;;;;5.80;3.10;;;;;;;41.17;20.10;100782.09;5073623;28;20931;-72
2022/08/29 10:23:40;;;;;;;5.73;3.40;;;;;;;40.92;20.18;100788.25;5072054;28;20494;-71
2022/08/29 10:26:20;;;;;;;4.10;2.20;;;;;;;39.70;20.89;100783.16;5081515;28;20482;-73
2022/08/29 10:28:52;;;;;;;4.33;2.23;;;;;;;40.90;20.28;100773.53;5072690;28;20473;-71
2022/08/29 10:31:27;;;;;;;2.60;1.87;;;;;;;40.94;20.55;100769.94;5054951;28;20443;-72
2022/08/29 10:34:06;;;;;;;4.57;3.47;;;;;;;41.05;19.97;100768.94;5072099;28;20537;-71
2022/08/29 10:36:37;;;;;;;6.10;3.13;;;;;;;41.35;19.92;100776.09;5081491;22;20497;-72
2022/08/29 10:39:13;;;;;;;4.20;2.10;;;;;;;41.18;20.00;100770.53;5071554;28;20454;-73
2022/08/29 10:41:53;;;;;;;4.17;2.20;;;;;;;41.88;19.87;100768.75;5065410;28;20418;-71
2022/08/29 10:44:32;;;;;;;2.70;1.90;;;;;;;42.18;19.29;100764.47;5066542;28;20573;-72
2022/08/29 10:47:13;;;;;;;3.70;2.40;;;;;;;42.24;19.20;100765.34;5067564;28;20792;-71
2022/08/29 10:49:57;;;;;;;3.20;1.80;;;;;;;42.61;18.92;100764.50;5072495;28;20431;-72
2022/08/29 10:52:28;;;;;;;2.60;1.73;;;;;;;42.47;18.45;100762.16;5073004;28;20449;-72
2022/08/29 10:55:02;;;;;;;3.00;1.70;;;;;;;42.90;18.43;100762.97;5071738;28;20518;-70
2022/08/29 10:57:46;;;;;;;6.77;1.83;;;;;;;43.03;18.28;100755.06;5070831;28;20438;-72
2022/08/29 11:00:18;;;;;;;4.33;1.70;;;;;;;43.85;17.88;100755.28;5072462;28;20441;-72
2022/08/29 11:02:53;;;;;;;6.83;1.83;;;;;;;41.05;19.17;100743.53;5070931;28;20462;-72
2022/08/29 11:05:24;;;;;;;2.87;2.00;;;;;;;39.30;20.62;100750.25;5071918;28;20488;-72
2022/08/29 11:07:54;;;;;;;4.87;2.43;;;;;;;39.14;20.74;100746.28;5069615;28;20439;-71
2022/08/29 11:10:26;;;;;;;3.00;2.20;;;;;;;40.73;19.83;100734.06;5069736;28;20459;-69
2022/08/29 11:12:58;;;;;;;2.83;2.10;;;;;;;42.24;19.15;100751.19;5071669;28;20453;-70
2022/08/29 11:15:31;;;;;;;5.33;1.60;;;;;;;43.93;17.94;100740.53;5072426;28;20493;-72
2022/08/29 11:18:05;;;;;;;6.20;2.33;;;;;;;43.48;18.13;100742.19;5058118;28;20439;-70
2022/08/29 11:20:38;;;;;;;2.60;1.60;;;;;;;43.25;18.19;100735.91;5071626;28;20419;-70
2022/08/29 11:23:11;;;;;;;7.00;2.13;;;;;;;42.74;18.21;100744.16;5073071;28;20433;-71
2022/08/29 11:25:42;;;;;;;4.37;2.00;;;;;;;42.01;18.66;100733.50;5066904;28;20480;-69
2022/08/29 11:28:16;;;;;;;4.23;2.27;;;;;;;42.24;18.63;100726.63;5055931;28;20494;-69
2022/08/29 11:30:50;;;;;;;4.93;2.10;;;;;;;42.64;18.18;100719.50;5051823;28;20432;-70
2022/08/29 11:33:31;;;;;;;5.53;1.57;;;;;;;42.73;18.35;100721.81;5052368;28;20424;-71
2022/08/29 11:36:14;;;;;;;3.90;1.80;;;;;;;41.87;19.16;100720.94;5051186;28;20633;-71